Time;durP1;ratioP1;P1;durP2;ratioP2;P2;SDS_P1;SDS_P2;PMS_P1;PMS_P2;Temp;Humidity;BMP_temperature;BMP_pressure;BME280_temperature;BME280_humidity;BME280_pressure;Samples;Min_cycle;Max_cycle;Signal;HPM_P1;HPM_P2
2021/05/16 08:03:33;;;;;;;1.40;0.45;;;;;;;13.63;60.26;95682.53;5212271;23;20062;-85
2021/05/16 08:14:35;;;;;;;11.23;6.63;;;;;;;14.15;58.21;95680.13;4940813;29;20045;-82
2021/05/16 08:17:09;;;;;;;5.07;3.42;;;;;;;14.21;56.69;95669.53;4974949;28;20036;-84
2021/05/16 08:19:50;;;;;;;1.95;0.77;;;;;;;14.24;56.64;95677.97;5028492;28;20032;-85
2021/05/16 08:22:31;;;;;;;2.13;0.80;;;;;;;14.31;56.52;95666.34;5036897;28;20049;-85
2021/05/16 08:25:15;;;;;;;2.30;0.93;;;;;;;14.44;56.72;95665.31;5037555;28;20034;-85
2021/05/16 08:27:51;;;;;;;0.63;0.22;;;;;;;14.60;56.08;95661.22;5037214;28;20113;-84
2021/05/16 08:30:30;;;;;;;6.28;3.03;;;;;;;14.75;55.91;95664.16;5037073;28;20034;-85
2021/05/16 08:33:04;;;;;;;47.08;30.52;;;;;;;14.91;54.26;95659.22;5036096;28;20102;-86
2021/05/16 08:35:43;;;;;;;10.93;5.30;;;;;;;15.05;53.62;95671.09;5035903;28;20053;-86
2021/05/16 08:38:15;;;;;;;2.58;1.42;;;;;;;15.18;53.84;95670.81;5041006;23;20050;-87
2021/05/16 08:40:51;;;;;;;2.13;0.40;;;;;;;15.25;51.45;95668.84;5034206;28;20046;-86
2021/05/16 08:43:27;;;;;;;1.52;0.40;;;;;;;15.36;50.77;95677.72;5030073;28;20056;-87
2021/05/16 08:46:02;;;;;;;3.13;0.55;;;;;;;15.48;49.97;95677.69;5021950;28;20056;-87
2021/05/16 08:48:38;;;;;;;1.15;0.30;;;;;;;15.51;49.42;95674.59;5018146;28;20046;-87
2021/05/16 08:51:11;;;;;;;3.22;0.90;;;;;;;15.59;49.85;95658.44;5003406;28;20043;-86
2021/05/16 08:53:45;;;;;;;1.05;0.50;;;;;;;15.73;49.52;95680.00;5003763;28;20093;-86
2021/05/16 08:56:32;;;;;;;1.40;0.50;;;;;;;15.84;49.59;95675.72;5003821;28;20070;-86
2021/05/16 08:59:10;;;;;;;1.75;0.63;;;;;;;15.94;48.79;95673.25;5018344;28;20041;-86
2021/05/16 09:01:47;;;;;;;1.45;0.52;;;;;;;15.93;47.41;95658.50;5018877;28;20102;-86
2021/05/16 09:04:32;;;;;;;1.35;0.40;;;;;;;15.84;47.61;95670.44;5009505;28;20115;-87
2021/05/16 09:07:04;;;;;;;2.60;0.73;;;;;;;15.80;47.79;95669.31;5000597;28;20062;-86
2021/05/16 09:09:46;;;;;;;1.45;0.38;;;;;;;15.90;47.78;95652.94;5000361;28;20605;-88
2021/05/16 09:12:22;;;;;;;4.38;0.70;;;;;;;15.94;47.06;95667.19;5002472;28;20053;-87
2021/05/16 09:15:01;;;;;;;2.40;0.50;;;;;;;15.89;47.18;95670.53;5000910;28;20450;-89
2021/05/16 09:17:32;;;;;;;20.42;13.68;;;;;;;15.88;46.54;95657.63;5000817;28;20414;-88
2021/05/16 09:20:06;;;;;;;7.97;5.45;;;;;;;15.85;46.48;95658.88;5000518;28;20050;-89
2021/05/16 09:22:43;;;;;;;2.47;0.47;;;;;;;15.83;46.92;95653.88;5001851;28;20050;-87
2021/05/16 09:25:18;;;;;;;3.10;0.60;;;;;;;15.94;47.22;95648.78;5000958;28;20058;-87
2021/05/16 09:27:50;;;;;;;2.55;0.40;;;;;;;16.12;47.58;95650.38;4999975;28;20073;-86
2021/05/16 09:30:30;;;;;;;1.95;0.70;;;;;;;16.33;47.26;95654.91;4999898;28;20058;-87
2021/05/16 09:33:13;;;;;;;3.72;0.60;;;;;;;16.45;45.89;95670.59;4998595;28;20084;-87
2021/05/16 09:35:51;;;;;;;1.23;0.30;;;;;;;16.37;46.14;95673.63;4998603;28;20047;-87
2021/05/16 09:38:27;;;;;;;2.28;0.40;;;;;;;16.11;50.07;95682.97;4997657;28;20159;-87
2021/05/16 09:41:03;;;;;;;1.10;0.45;;;;;;;15.72;52.02;95680.22;4998299;28;20061;-87
2021/05/16 09:43:35;;;;;;;3.83;0.93;;;;;;;15.33;53.22;95680.81;4999343;28;20403;-87
2021/05/16 09:46:22;;;;;;;2.70;0.70;;;;;;;15.00;55.36;95686.75;5002083;28;20050;-86
2021/05/16 09:48:57;;;;;;;1.55;0.40;;;;;;;14.88;54.38;95691.22;5008125;28;20051;-86
2021/05/16 09:51:33;;;;;;;7.30;3.28;;;;;;;14.78;54.91;95689.97;5006273;28;20054;-86
2021/05/16 09:54:10;;;;;;;5.13;3.40;;;;;;;14.72;54.10;95692.72;5004954;28;20101;-86
2021/05/16 09:56:43;;;;;;;2.35;0.40;;;;;;;14.68;54.07;95695.00;5008814;28;20133;-85
2021/05/16 09:59:16;;;;;;;1.98;0.82;;;;;;;14.69;53.72;95709.72;5010766;28;20054;-86
2021/05/16 10:01:52;;;;;;;1.98;0.43;;;;;;;14.62;53.22;95716.91;5011105;28;20066;-86
2021/05/16 10:04:26;;;;;;;2.28;0.40;;;;;;;14.43;53.34;95698.63;5016342;28;20046;-85
2021/05/16 10:06:59;;;;;;;0.80;0.40;;;;;;;14.31;54.37;95673.41;5018214;28;20053;-85
2021/05/16 10:09:37;;;;;;;2.25;0.50;;;;;;;14.26;55.75;95678.56;5018991;28;20038;-85
2021/05/16 10:12:18;;;;;;;1.58;0.70;;;;;;;14.21;56.88;95668.72;5019708;28;20102;-84
2021/05/16 10:15:07;;;;;;;0.93;0.40;;;;;;;14.20;57.84;95667.13;5018905;28;20102;-84
2021/05/16 10:17:43;;;;;;;1.58;0.40;;;;;;;14.22;56.57;95667.72;5019205;28;20034;-85
2021/05/16 10:20:29;;;;;;;2.60;0.35;;;;;;;14.22;54.97;95659.84;5019084;28;20062;-85
2021/05/16 10:23:04;;;;;;;0.82;0.40;;;;;;;14.28;56.05;95652.88;5019127;28;20042;-85
2021/05/16 10:25:50;;;;;;;1.98;0.57;;;;;;;14.43;56.08;95635.66;5019131;28;20065;-85
2021/05/16 10:32:26;;;;;;;1.73;0.50;;;;;;;14.75;54.98;95624.78;5019197;28;20045;-84
2021/05/16 10:35:10;;;;;;;1.70;0.45;;;;;;;14.90;54.45;95628.78;5013644;28;20046;-86
2021/05/16 10:40:46;;;;;;;2.55;0.40;;;;;;;15.15;53.57;95617.94;4999019;28;20054;-86
2021/05/16 10:43:32;;;;;;;1.05;0.40;;;;;;;15.31;53.61;95608.53;5003186;28;20050;-86
2021/05/16 10:46:55;;;;;;;1.50;0.40;;;;;;;15.51;53.71;95593.09;5008097;28;20050;-87
2021/05/16 10:49:33;;;;;;;3.30;0.52;;;;;;;15.76;53.86;95597.22;4966678;28;20046;-87
2021/05/16 10:52:35;;;;;;;0.93;0.37;;;;;;;16.01;52.50;95597.63;4997137;28;20133;-88
2021/05/16 10:55:26;;;;;;;1.98;0.63;;;;;;;16.24;51.88;95595.81;4997033;28;20302;-87
2021/05/16 10:58:05;;;;;;;8.00;4.35;;;;;;;16.38;50.12;95591.81;4995609;28;20054;-87
2021/05/16 11:00:45;;;;;;;5.88;1.48;;;;;;;16.52;50.32;95594.09;4996083;28;20050;-87
2021/05/16 11:03:41;;;;;;;1.70;0.73;;;;;;;16.59;49.10;95599.97;4997075;28;20057;-87
2021/05/16 11:06:19;;;;;;;4.53;0.50;;;;;;;16.54;48.40;95610.44;4997851;28;20054;-86
2021/05/16 11:09:12;;;;;;;2.00;0.38;;;;;;;16.20;49.35;95608.69;4996638;28;20065;-87
2021/05/16 11:12:03;;;;;;;1.48;0.40;;;;;;;15.90;50.13;95598.50;5000440;28;20054;-86
2021/05/16 11:14:52;;;;;;;2.03;0.45;;;;;;;15.79;49.64;95586.22;5002143;28;20399;-86
2021/05/16 11:17:27;;;;;;;2.38;0.85;;;;;;;15.82;51.65;95580.47;4998402;28;20054;-86
2021/05/16 11:20:00;;;;;;;1.00;0.38;;;;;;;15.94;52.84;95581.22;4997483;28;20042;-86
2021/05/16 11:22:45;;;;;;;1.75;0.50;;;;;;;16.12;51.73;95579.34;4998352;28;20054;-85
2021/05/16 11:25:26;;;;;;;2.80;0.28;;;;;;;16.22;49.68;95571.59;4998090;28;20058;-86
2021/05/16 11:28:15;;;;;;;1.77;0.30;;;;;;;16.30;49.85;95565.91;4998229;28;20532;-86
2021/05/16 11:30:52;;;;;;;2.67;0.50;;;;;;;16.34;49.92;95567.03;4997473;28;20133;-86
2021/05/16 11:33:36;;;;;;;2.58;1.10;;;;;;;16.43;49.92;95565.56;4997521;28;20100;-86
2021/05/16 11:36:09;;;;;;;3.13;0.80;;;;;;;16.52;49.07;95552.78;4997178;28;20057;-86
2021/05/16 17:41:28;;;;;;;2.85;0.93;;;;;;;14.31;53.26;95345.53;5051073;23;20055;-77
2021/05/16 17:43:56;;;;;;;2.38;0.80;;;;;;;14.28;53.49;95344.16;4956129;29;20048;-77
2021/05/16 17:46:23;;;;;;;2.78;0.73;;;;;;;14.27;54.22;95332.06;4957237;29;20427;-76
2021/05/16 17:48:50;;;;;;;2.15;0.40;;;;;;;14.30;53.80;95341.28;4956944;28;20055;-77
2021/05/16 17:51:17;;;;;;;0.22;0.22;;;;;;;14.31;53.50;95333.19;4968668;28;20039;-84
2021/05/16 17:53:45;;;;;;;0.40;0.30;;;;;;;14.28;53.61;95336.31;4981284;28;20069;-83
2021/05/16 17:56:12;;;;;;;0.38;0.22;;;;;;;14.23;53.78;95341.44;4981588;28;20098;-84
2021/05/16 17:59:00;;;;;;;1.10;0.20;;;;;;;14.16;53.46;95346.81;4974656;28;20064;-82
2021/05/16 18:01:28;;;;;;;1.60;0.10;;;;;;;14.09;53.69;95343.56;4981718;28;20066;-83
2021/05/16 18:03:55;;;;;;;1.35;0.32;;;;;;;14.03;53.58;95352.34;4981819;28;20050;-83
2021/05/16 19:03:58;;;;;;;0.20;0.20;;;;;;;12.75;57.20;95375.81;4918317;29;20043;-78
2021/05/16 19:06:25;;;;;;;1.63;0.40;;;;;;;12.72;57.95;95379.66;4920332;29;20056;-77
2021/05/16 19:19:09;;;;;;;0.20;0.20;;;;;;;12.54;58.46;95367.44;4982085;28;20074;-82
2021/05/16 19:22:19;;;;;;;0.65;0.10;;;;;;;12.53;57.96;95372.91;5220647;23;20039;-82
2021/05/16 19:24:48;;;;;;;0.10;0.10;;;;;;;12.50;58.26;95375.97;4980684;28;20095;-82
2021/05/16 19:27:17;;;;;;;0.10;0.10;;;;;;;12.48;58.35;95378.00;4980342;28;20027;-81
2021/05/16 19:29:51;;;;;;;0.15;0.15;;;;;;;12.46;58.37;95372.19;4983434;28;20090;-81
2021/05/16 19:32:24;;;;;;;0.20;0.10;;;;;;;12.42;58.59;95374.47;4999575;28;20050;-82
2021/05/16 19:34:53;;;;;;;0.93;0.20;;;;;;;12.41;58.76;95383.34;4999568;28;20035;-79
2021/05/16 19:37:21;;;;;;;0.75;0.20;;;;;;;12.42;58.64;95384.13;4999724;28;20027;-81
2021/05/16 19:39:51;;;;;;;10.30;6.82;;;;;;;12.43;58.93;95391.75;4999418;28;20059;-80
2021/05/16 19:42:19;;;;;;;0.73;0.45;;;;;;;12.43;58.71;95389.13;4999458;28;20035;-81
2021/05/16 19:44:48;;;;;;;0.55;0.30;;;;;;;12.43;59.22;95386.53;4983135;28;20027;-80
2021/05/16 19:47:32;;;;;;;0.20;0.20;;;;;;;12.44;58.84;95387.31;4999575;28;20031;-80
2021/05/16 19:50:03;;;;;;;0.10;0.10;;;;;;;12.43;58.73;95383.91;4999164;28;20090;-80
2021/05/16 19:52:42;;;;;;;0.10;0.10;;;;;;;12.43;58.93;95389.13;4999613;28;20049;-82
2021/05/16 19:55:32;;;;;;;0.43;0.10;;;;;;;12.43;58.95;95401.44;4996449;28;20086;-82
2021/05/16 19:58:05;;;;;;;0.22;0.20;;;;;;;12.43;58.99;95398.81;4999519;28;20090;-82
2021/05/16 20:00:39;;;;;;;0.43;0.10;;;;;;;12.38;58.70;95391.63;4999273;28;20095;-81
2021/05/16 20:03:15;;;;;;;3.30;0.85;;;;;;;12.36;58.92;95391.06;4999519;28;20034;-81
2021/05/16 20:05:44;;;;;;;0.95;0.47;;;;;;;12.37;58.78;95395.25;4999156;28;20037;-80
2021/05/16 20:08:12;;;;;;;0.10;0.10;;;;;;;12.38;58.84;95404.72;4999272;28;20058;-80
2021/05/16 20:10:39;;;;;;;0.55;0.32;;;;;;;12.39;58.81;95392.44;4999172;28;20034;-80
2021/05/16 20:13:07;;;;;;;0.20;0.20;;;;;;;12.39;58.69;95393.22;4998823;28;20042;-80
2021/05/16 20:15:35;;;;;;;0.50;0.15;;;;;;;12.38;59.05;95391.63;4999088;28;20055;-80
2021/05/16 20:18:02;;;;;;;0.28;0.10;;;;;;;12.36;58.83;95386.63;4999259;28;20062;-81
2021/05/16 20:20:30;;;;;;;0.10;0.10;;;;;;;12.34;58.98;95388.66;4999123;28;20042;-80
2021/05/16 20:23:00;;;;;;;0.10;0.10;;;;;;;12.34;59.14;95387.88;4998728;28;20058;-80
2021/05/16 20:25:28;;;;;;;0.55;0.10;;;;;;;12.33;59.17;95397.53;4999066;28;20031;-81
2021/05/16 20:27:56;;;;;;;0.00;0.00;;;;;;;12.33;59.31;95404.56;4999114;28;20034;-81
2021/05/16 20:30:27;;;;;;;0.00;0.00;;;;;;;12.32;59.24;95395.13;4998826;28;20038;-79
2021/05/16 20:32:57;;;;;;;0.22;0.13;;;;;;;12.31;59.26;95407.41;4998982;28;20094;-80
2021/05/16 20:35:27;;;;;;;0.20;0.10;;;;;;;12.31;59.41;95407.41;4999140;28;20031;-81
2021/05/16 20:37:55;;;;;;;0.30;0.13;;;;;;;12.31;59.63;95402.19;4999171;28;20039;-80
2021/05/16 20:40:25;;;;;;;0.20;0.10;;;;;;;12.30;59.43;95408.41;4998795;28;20035;-80
2021/05/16 20:42:54;;;;;;;0.90;0.10;;;;;;;12.31;59.41;95415.25;4999499;28;20066;-81
2021/05/16 20:45:25;;;;;;;0.28;0.10;;;;;;;12.32;59.66;95416.84;5002686;28;20031;-80
2021/05/16 20:47:55;;;;;;;0.10;0.00;;;;;;;12.33;59.59;95417.63;5002589;28;20045;-79
2021/05/16 20:50:23;;;;;;;1.65;0.17;;;;;;;12.36;59.56;95428.47;5002507;28;20031;-80
2021/05/16 20:52:51;;;;;;;0.10;0.10;;;;;;;12.36;59.20;95422.44;5002359;28;20079;-80
2021/05/16 20:55:20;;;;;;;0.47;0.30;;;;;;;12.33;59.18;95423.69;5002415;28;20123;-80
2021/05/16 20:57:49;;;;;;;0.32;0.13;;;;;;;12.33;59.25;95425.47;5002392;28;20054;-81
2021/05/16 21:00:22;;;;;;;0.10;0.10;;;;;;;12.33;59.53;95430.72;5002186;28;20038;-81
2021/05/16 21:02:50;;;;;;;2.00;0.10;;;;;;;12.34;59.41;95433.09;5002405;28;20060;-80
2021/05/16 21:05:19;;;;;;;0.25;0.25;;;;;;;12.34;59.61;95430.50;5002293;28;20031;-80
2021/05/16 21:07:47;;;;;;;0.30;0.10;;;;;;;12.36;59.21;95433.69;5002098;28;20126;-80
2021/05/16 21:10:15;;;;;;;0.10;0.10;;;;;;;12.38;58.93;95430.06;5002207;28;20038;-80
2021/05/16 21:12:42;;;;;;;0.57;0.10;;;;;;;12.38;58.79;95425.63;5002136;28;20031;-81
2021/05/16 21:15:14;;;;;;;0.35;0.10;;;;;;;12.38;58.93;95430.84;5001972;28;20046;-81
2021/05/16 21:17:42;;;;;;;0.15;0.10;;;;;;;12.39;58.62;95434.28;5002321;28;20086;-79
2021/05/16 21:20:12;;;;;;;0.52;0.08;;;;;;;12.39;58.62;95434.28;5001938;28;20054;-81
2021/05/16 21:22:39;;;;;;;0.00;0.00;;;;;;;12.39;58.57;95421.19;5001789;28;20061;-81
2021/05/16 21:25:08;;;;;;;0.52;0.10;;;;;;;12.42;58.48;95425.97;5001948;28;20031;-81
2021/05/16 21:27:35;;;;;;;0.10;0.10;;;;;;;12.43;58.52;95430.97;5002002;28;20031;-80
2021/05/16 21:30:03;;;;;;;0.00;0.00;;;;;;;12.42;58.43;95425.97;5001699;28;20031;-80
2021/05/16 21:32:49;;;;;;;0.43;0.20;;;;;;;12.38;58.26;95433.47;5001895;28;20058;-80
2021/05/16 21:35:17;;;;;;;0.10;0.00;;;;;;;12.33;58.31;95439.38;5001294;28;20066;-81
2021/05/16 21:37:44;;;;;;;1.00;0.10;;;;;;;12.31;58.50;95436.19;5001609;28;20065;-81
2021/05/16 21:40:13;;;;;;;0.05;0.05;;;;;;;12.30;58.59;95442.41;5001638;28;20041;-80
2021/05/16 21:42:41;;;;;;;0.00;0.00;;;;;;;12.32;58.63;95432.53;5001748;28;20034;-80
2021/05/16 21:45:10;;;;;;;0.10;0.10;;;;;;;12.34;58.76;95440.16;5001598;28;20030;-81
2021/05/16 21:47:38;;;;;;;0.00;0.00;;;;;;;12.33;58.65;95452.44;5001703;28;20058;-81
2021/05/16 21:50:10;;;;;;;0.10;0.00;;;;;;;12.30;58.76;95446.84;4984990;28;20049;-84
2021/05/16 21:52:39;;;;;;;0.20;0.00;;;;;;;12.28;58.79;95452.28;5001449;28;20035;-80
2021/05/16 21:55:09;;;;;;;0.10;0.10;;;;;;;12.28;59.15;95447.06;5001211;28;20065;-80
2021/05/16 21:57:37;;;;;;;0.43;0.00;;;;;;;12.27;59.13;95437.63;5001198;28;20058;-81
2021/05/16 22:00:10;;;;;;;0.10;0.00;;;;;;;12.27;59.37;95437.63;5001256;28;20058;-80
2021/05/16 22:02:37;;;;;;;0.10;0.00;;;;;;;12.21;59.40;95438.50;5001305;28;20094;-81
2021/05/16 22:05:07;;;;;;;0.60;0.20;;;;;;;12.18;59.98;95438.97;5001097;28;20038;-81
2021/05/16 22:07:35;;;;;;;0.30;0.08;;;;;;;12.18;59.85;95435.53;5001014;28;20034;-80
2021/05/16 22:10:04;;;;;;;0.30;0.10;;;;;;;12.15;59.80;95444.63;5001325;28;20066;-79
2021/05/16 22:12:32;;;;;;;0.22;0.15;;;;;;;12.12;60.07;95442.44;5001124;28;20054;-81
2021/05/16 22:14:59;;;;;;;0.03;0.03;;;;;;;12.12;60.34;95443.25;5001221;28;20039;-81
2021/05/16 22:17:26;;;;;;;0.10;0.10;;;;;;;12.13;60.32;95449.25;5001247;28;20026;-80
2021/05/16 22:19:57;;;;;;;0.30;0.03;;;;;;;12.11;60.65;95459.13;5000982;28;20034;-81
2021/05/16 22:22:25;;;;;;;0.10;0.10;;;;;;;12.08;60.75;95467.44;5000719;28;20066;-83
2021/05/16 22:24:53;;;;;;;0.20;0.10;;;;;;;12.08;60.81;95462.19;5000803;28;20040;-80
2021/05/16 22:27:20;;;;;;;0.00;0.00;;;;;;;12.09;60.78;95464.59;5000849;28;20039;-80
2021/05/16 22:29:48;;;;;;;0.00;0.00;;;;;;;12.12;61.08;95468.59;5000481;28;20106;-81
2021/05/16 22:32:15;;;;;;;0.00;0.00;;;;;;;12.13;61.18;95464.94;5000948;28;20037;-80
2021/05/16 22:34:44;;;;;;;0.17;0.10;;;;;;;12.15;61.33;95468.13;5000582;28;20059;-80
2021/05/16 22:37:11;;;;;;;0.50;0.00;;;;;;;12.15;61.22;95474.16;5000458;28;20030;-80
2021/05/16 22:39:39;;;;;;;0.17;0.05;;;;;;;12.15;61.44;95470.75;5000379;28;20034;-80
2021/05/16 22:42:07;;;;;;;0.00;0.00;;;;;;;12.16;61.30;95464.53;5000341;28;20066;-80
2021/05/16 22:44:34;;;;;;;0.22;0.05;;;;;;;12.18;61.23;95472.94;5000160;28;20031;-81
2021/05/16 22:47:02;;;;;;;0.52;0.00;;;;;;;12.21;61.29;95469.88;5000157;28;20045;-80
2021/05/16 22:49:30;;;;;;;0.15;0.15;;;;;;;12.22;61.24;95470.69;4999964;28;20042;-81
2021/05/16 22:51:57;;;;;;;0.20;0.10;;;;;;;12.21;61.36;95472.50;5000119;28;20050;-80
2021/05/16 22:54:25;;;;;;;0.75;0.10;;;;;;;12.19;61.08;95471.91;4999933;28;20035;-79
2021/05/16 22:56:53;;;;;;;0.25;0.00;;;;;;;12.16;61.75;95480.22;5000175;28;20034;-79
2021/05/16 22:59:21;;;;;;;0.00;0.00;;;;;;;12.15;61.51;95474.16;5000034;28;20046;-80
2021/05/16 23:01:49;;;;;;;0.70;0.10;;;;;;;12.12;61.64;95479.03;5000144;28;20030;-81
2021/05/16 23:04:17;;;;;;;0.20;0.10;;;;;;;12.12;61.73;95476.44;4999652;28;20038;-80
2021/05/16 23:06:44;;;;;;;0.32;0.10;;;;;;;12.06;61.62;95469.47;4999284;28;20042;-79
2021/05/16 23:09:11;;;;;;;0.20;0.10;;;;;;;12.02;61.87;95481.38;4999571;28;20062;-80
2021/05/16 23:11:39;;;;;;;0.40;0.20;;;;;;;11.96;62.13;95477.81;4999815;28;20045;-81
2021/05/16 23:14:08;;;;;;;0.00;0.00;;;;;;;11.88;62.48;95486.72;5000010;28;20050;-80
2021/05/16 23:16:37;;;;;;;0.95;0.20;;;;;;;11.82;62.71;95495.41;4999951;28;20062;-79
2021/05/16 23:19:05;;;;;;;0.20;0.10;;;;;;;11.78;62.92;95499.47;4999500;28;20039;-80
2021/05/16 23:21:33;;;;;;;0.65;0.30;;;;;;;11.73;63.24;95494.09;4999663;28;20027;-80
2021/05/16 23:24:01;;;;;;;0.57;0.22;;;;;;;11.69;63.30;95492.91;4999416;28;20176;-80
2021/05/16 23:26:28;;;;;;;1.63;0.22;;;;;;;11.64;63.61;95492.78;4999379;28;20038;-81
2021/05/16 23:28:56;;;;;;;0.40;0.25;;;;;;;11.62;63.82;95500.03;4999272;28;20094;-80
2021/05/16 23:31:24;;;;;;;0.10;0.10;;;;;;;11.59;63.82;95501.25;4999369;28;20038;-80
2021/05/16 23:33:52;;;;;;;0.20;0.20;;;;;;;11.55;64.09;95500.88;4999282;28;20035;-80
2021/05/16 23:36:20;;;;;;;1.85;0.15;;;;;;;11.53;64.13;95497.69;4999299;28;20031;-80
2021/05/16 23:38:48;;;;;;;0.10;0.10;;;;;;;11.50;64.26;95498.13;4999269;28;20041;-79
